Time;durP1;ratioP1;P1;durP2;ratioP2;P2;SDS_P1;SDS_P2;PMS_P1;PMS_P2;Temp;Humidity;BMP_temperature;BMP_pressure;BME280_temperature;BME280_humidity;BME280_pressure;Samples;Min_cycle;Max_cycle;Signal;HPM_P1;HPM_P2
2022/08/27 00:01:59;;;;;;;21.55;4.18;;;28.40;58.50;;;;;;5074169;28;20036;-74
2022/08/27 00:04:25;;;;;;;12.07;3.95;;;28.30;58.50;;;;;;5074124;28;20044;-73
2022/08/27 00:06:52;;;;;;;21.05;3.97;;;28.30;58.40;;;;;;5072961;28;20039;-74
2022/08/27 00:09:18;;;;;;;21.95;3.80;;;28.40;58.40;;;;;;5074174;28;20024;-74
2022/08/27 00:11:45;;;;;;;22.63;4.65;;;28.30;58.30;;;;;;5074069;28;20043;-74
2022/08/27 00:14:12;;;;;;;11.73;3.60;;;28.30;58.40;;;;;;5074215;28;20070;-73
2022/08/27 00:16:39;;;;;;;20.95;4.35;;;28.40;58.40;;;;;;5073751;28;20048;-73
2022/08/27 00:19:05;;;;;;;27.98;4.47;;;28.30;58.50;;;;;;5073871;28;20146;-74
2022/08/27 00:21:31;;;;;;;19.10;4.57;;;28.40;58.50;;;;;;5073608;28;20109;-74
2022/08/27 00:23:58;;;;;;;15.27;4.20;;;28.50;58.40;;;;;;5073823;28;20117;-74
2022/08/27 00:26:25;;;;;;;16.88;4.65;;;28.40;58.50;;;;;;5073860;28;20171;-73
2022/08/27 00:28:51;;;;;;;24.52;4.63;;;28.50;58.50;;;;;;5073623;28;20056;-74
2022/08/27 00:31:18;;;;;;;25.02;4.55;;;28.30;58.50;;;;;;5073605;28;20048;-73
2022/08/27 00:33:45;;;;;;;27.00;4.82;;;28.40;58.50;;;;;;5073547;28;20028;-74
2022/08/27 00:36:12;;;;;;;22.08;4.38;;;28.30;58.50;;;;;;5073567;28;20071;-74
2022/08/27 00:38:39;;;;;;;21.20;4.60;;;28.30;58.40;;;;;;5073873;28;20037;-74
2022/08/27 00:41:08;;;;;;;25.02;5.97;;;28.50;58.40;;;;;;5055724;28;20020;-74
2022/08/27 00:43:48;;;;;;;16.77;4.57;;;28.40;58.40;;;;;;5073504;28;20032;-73
2022/08/27 00:46:20;;;;;;;22.25;4.70;;;28.50;58.50;;;;;;5072936;28;20036;-73
2022/08/27 00:48:47;;;;;;;19.63;4.47;;;28.40;58.40;;;;;;5073286;28;20025;-74
2022/08/27 00:51:14;;;;;;;33.78;5.30;;;28.40;58.40;;;;;;5073242;28;20040;-74
2022/08/27 00:53:41;;;;;;;24.05;4.60;;;28.30;58.40;;;;;;5072831;28;20040;-74
2022/08/27 00:56:15;;;;;;;26.52;4.60;;;28.20;58.40;;;;;;5072872;28;20111;-74
2022/08/27 00:58:47;;;;;;;23.17;4.78;;;28.30;58.50;;;;;;5072838;28;20064;-74
2022/08/27 01:01:26;;;;;;;22.90;4.82;;;28.30;58.50;;;;;;5020920;28;20045;-74
2022/08/27 01:03:57;;;;;;;32.58;5.55;;;28.20;58.50;;;;;;5072659;28;20378;-74
2022/08/27 01:06:29;;;;;;;27.02;4.30;;;28.30;58.60;;;;;;5072625;28;20481;-74
2022/08/27 01:09:04;;;;;;;21.77;4.57;;;28.30;58.60;;;;;;5073599;28;20108;-74
2022/08/27 01:11:31;;;;;;;31.40;4.43;;;28.20;58.70;;;;;;5072721;28;20048;-74
2022/08/27 01:13:57;;;;;;;18.08;4.93;;;28.20;58.70;;;;;;5072676;28;20040;-74
2022/08/27 01:16:27;;;;;;;20.35;4.85;;;28.20;58.70;;;;;;5072801;28;20024;-73
2022/08/27 01:18:55;;;;;;;26.98;4.15;;;28.20;58.60;;;;;;5072557;28;20389;-73
2022/08/27 01:21:44;;;;;;;29.95;4.93;;;28.30;58.60;;;;;;5072761;28;20470;-73
2022/08/27 01:24:37;;;;;;;42.03;5.63;;;28.30;58.60;;;;;;5072681;28;20040;-74
2022/08/27 01:27:05;;;;;;;;;;;28.30;58.60;;;;;;5072935;28;20039;-74
2022/08/27 01:29:32;;;;;;;38.75;5.63;;;28.20;58.60;;;;;;5072282;28;19955;-74
2022/08/27 01:32:14;;;;;;;40.92;6.07;;;28.30;58.60;;;;;;5072619;28;20024;-73
2022/08/27 01:34:40;;;;;;;24.55;5.05;;;28.30;58.60;;;;;;5072379;28;20038;-74
2022/08/27 01:37:06;;;;;;;20.50;4.60;;;28.20;58.60;;;;;;5054432;28;20062;-73
2022/08/27 01:39:38;;;;;;;26.05;4.88;;;28.20;58.60;;;;;;5072415;28;20082;-74
2022/08/27 01:42:20;;;;;;;28.97;5.50;;;28.20;58.60;;;;;;5072243;28;20028;-74
2022/08/27 01:44:53;;;;;;;22.67;4.85;;;28.20;58.60;;;;;;5072428;28;20273;-74
2022/08/27 01:47:21;;;;;;;29.38;6.05;;;28.20;58.50;;;;;;5072205;28;20040;-73
2022/08/27 01:49:47;;;;;;;25.30;4.90;;;28.30;58.60;;;;;;5072441;28;20025;-73
2022/08/27 01:52:16;;;;;;;21.77;4.97;;;28.30;58.50;;;;;;5054110;28;20034;-74
2022/08/27 01:54:42;;;;;;;26.88;5.28;;;28.20;58.50;;;;;;5072152;28;20079;-74
2022/08/27 01:57:08;;;;;;;25.75;5.07;;;28.40;58.60;;;;;;5053917;28;20072;-74
2022/08/27 01:59:35;;;;;;;16.45;4.82;;;28.30;58.60;;;;;;5072357;28;20105;-73
2022/08/27 02:02:04;;;;;;;31.00;6.93;;;28.10;58.60;;;;;;5071894;28;20112;-73
2022/08/27 02:04:30;;;;;;;15.60;4.22;;;28.20;58.60;;;;;;5072226;28;20028;-73
2022/08/27 02:06:57;;;;;;;17.42;3.70;;;28.20;58.60;;;;;;5071993;28;20130;-74
2022/08/27 02:09:24;;;;;;;25.15;5.47;;;28.10;58.70;;;;;;5071788;28;20051;-74
2022/08/27 02:11:51;;;;;;;25.95;4.82;;;28.20;58.70;;;;;;5072230;28;20024;-73
2022/08/27 02:14:17;;;;;;;22.77;4.97;;;28.30;58.70;;;;;;5053766;28;20035;-73
2022/08/27 02:16:44;;;;;;;27.23;5.22;;;28.20;58.70;;;;;;5071233;28;20056;-73
2022/08/27 02:19:10;;;;;;;32.58;5.45;;;28.10;58.70;;;;;;5071725;28;20059;-73
2022/08/27 02:21:36;;;;;;;22.02;4.88;;;28.10;58.80;;;;;;5072268;28;20070;-73
2022/08/27 02:24:02;;;;;;;15.27;4.75;;;28.10;58.80;;;;;;5071487;28;20441;-73
2022/08/27 02:26:29;;;;;;;21.90;4.30;;;28.10;58.80;;;;;;5071718;28;20028;-73
2022/08/27 02:28:55;;;;;;;21.67;5.07;;;28.10;58.90;;;;;;5071458;28;20039;-73
2022/08/27 02:31:23;;;;;;;25.88;5.03;;;28.10;58.90;;;;;;5071644;28;20060;-73
2022/08/27 02:33:49;;;;;;;20.23;5.43;;;28.00;59.10;;;;;;5071516;28;20133;-73
2022/08/27 02:36:16;;;;;;;17.67;4.15;;;28.10;59.20;;;;;;5071307;28;20040;-73
2022/08/27 02:38:43;;;;;;;28.08;4.20;;;28.00;59.20;;;;;;5071659;28;20035;-73
2022/08/27 02:41:09;;;;;;;16.98;4.03;;;28.00;59.20;;;;;;5071641;28;20484;-73
2022/08/27 02:43:35;;;;;;;26.48;4.47;;;28.10;59.20;;;;;;5071594;28;20043;-73
2022/08/27 02:46:02;;;;;;;25.85;5.05;;;28.10;59.20;;;;;;5071495;28;20032;-73
2022/08/27 02:48:28;;;;;;;17.15;4.00;;;28.00;59.20;;;;;;5071322;28;20032;-73
2022/08/27 02:50:54;;;;;;;19.27;4.88;;;28.10;59.20;;;;;;5071407;28;20162;-73
2022/08/27 02:53:20;;;;;;;18.30;4.57;;;28.20;59.20;;;;;;5071551;28;20110;-73
2022/08/27 02:55:47;;;;;;;13.27;4.13;;;28.20;59.20;;;;;;5053674;28;20031;-73
2022/08/27 02:58:15;;;;;;;28.20;4.65;;;28.10;59.20;;;;;;5071468;28;20060;-73
2022/08/27 03:00:43;;;;;;;16.38;4.15;;;28.10;59.10;;;;;;5071523;28;20031;-74
2022/08/27 03:03:12;;;;;;;16.00;4.10;;;28.20;59.00;;;;;;5053187;28;20119;-73
2022/08/27 03:05:38;;;;;;;24.35;5.80;;;28.10;59.00;;;;;;5071345;28;20051;-73
2022/08/27 03:08:05;;;;;;;21.02;4.68;;;28.20;58.90;;;;;;5070955;28;20033;-73
2022/08/27 03:10:31;;;;;;;18.00;4.72;;;28.20;58.90;;;;;;5071391;28;20033;-74
2022/08/27 03:12:57;;;;;;;21.25;4.75;;;28.10;58.90;;;;;;5053255;28;20032;-73
2022/08/27 03:15:24;;;;;;;18.10;4.45;;;28.30;58.90;;;;;;5071144;28;20025;-74
2022/08/27 03:20:39;;;;;;;19.60;4.63;;;28.30;58.80;;;;;;5071133;28;20082;-74
2022/08/27 03:23:07;;;;;;;18.48;4.85;;;28.30;58.70;;;;;;5053306;28;20511;-73
2022/08/27 03:25:33;;;;;;;17.23;4.93;;;28.30;58.70;;;;;;5071348;28;20043;-74
2022/08/27 03:27:59;;;;;;;15.40;4.03;;;28.40;58.70;;;;;;5070869;28;20025;-73
2022/08/27 03:30:25;;;;;;;20.50;5.25;;;28.30;58.60;;;;;;5073969;28;20053;-74
2022/08/27 03:32:52;;;;;;;14.63;4.18;;;28.20;58.50;;;;;;5074863;28;20040;-74
2022/08/27 03:35:19;;;;;;;18.92;4.07;;;28.30;58.50;;;;;;5039196;28;20132;-74
2022/08/27 03:37:46;;;;;;;25.58;4.22;;;28.40;58.50;;;;;;5074871;28;20115;-74
2022/08/27 03:40:14;;;;;;;16.00;4.65;;;28.40;58.50;;;;;;5074565;28;20078;-74
2022/08/27 03:42:42;;;;;;;20.17;4.45;;;28.40;58.40;;;;;;5056630;28;20500;-73
2022/08/27 03:45:09;;;;;;;21.67;4.80;;;28.30;58.30;;;;;;5074606;28;20032;-74
2022/08/27 03:47:36;;;;;;;23.73;5.32;;;28.50;58.30;;;;;;5074306;28;20075;-74
2022/08/27 03:50:03;;;;;;;18.63;4.55;;;28.40;58.30;;;;;;5074371;28;20470;-74
2022/08/27 03:52:29;;;;;;;18.48;4.88;;;28.50;58.20;;;;;;5074497;28;20055;-73
2022/08/27 03:54:57;;;;;;;23.48;4.70;;;28.40;58.10;;;;;;5074342;28;20044;-74
2022/08/27 03:57:23;;;;;;;20.85;4.00;;;28.40;58.10;;;;;;5074347;28;20393;-73
2022/08/27 03:59:50;;;;;;;15.65;3.92;;;28.50;58.00;;;;;;5074399;28;20089;-73
2022/08/27 04:02:16;;;;;;;22.13;4.38;;;28.50;57.90;;;;;;5074338;28;20037;-74
2022/08/27 04:04:42;;;;;;;13.80;4.25;;;28.70;57.80;;;;;;5074377;28;20036;-74
2022/08/27 04:07:09;;;;;;;18.80;4.38;;;28.50;57.90;;;;;;5074024;28;20036;-74
2022/08/27 04:09:35;;;;;;;22.20;3.67;;;28.50;57.90;;;;;;5074204;28;20028;-73
2022/08/27 04:12:01;;;;;;;9.13;3.75;;;28.60;58.00;;;;;;5073956;28;20461;-74
2022/08/27 04:14:27;;;;;;;18.13;4.40;;;28.50;57.90;;;;;;5073941;28;20056;-74
2022/08/27 04:16:55;;;;;;;16.70;4.47;;;28.60;57.90;;;;;;5074226;28;20075;-74
2022/08/27 04:19:21;;;;;;;17.52;5.03;;;28.60;57.90;;;;;;5073967;28;20043;-73
2022/08/27 04:21:47;;;;;;;21.75;4.43;;;28.50;57.90;;;;;;5056172;28;20389;-74
2022/08/27 04:24:14;;;;;;;21.17;4.82;;;28.50;57.90;;;;;;5073927;28;20505;-74
2022/08/27 04:26:41;;;;;;;14.43;4.05;;;28.50;57.90;;;;;;5055824;28;20130;-74
2022/08/27 04:29:07;;;;;;;20.17;4.18;;;28.60;57.90;;;;;;5073397;28;20048;-74
2022/08/27 04:31:34;;;;;;;16.63;4.50;;;28.60;57.90;;;;;;5073928;28;20067;-74
2022/08/27 04:34:00;;;;;;;19.23;4.25;;;28.40;57.80;;;;;;5073565;28;20376;-74
2022/08/27 04:36:26;;;;;;;18.17;4.35;;;28.60;57.80;;;;;;5073821;28;20102;-74
2022/08/27 04:38:52;;;;;;;12.60;4.07;;;28.60;57.80;;;;;;5073406;28;20056;-73
2022/08/27 04:41:18;;;;;;;17.55;4.72;;;28.40;57.70;;;;;;5073045;28;20078;-73
2022/08/27 04:43:46;;;;;;;11.20;3.85;;;28.40;57.80;;;;;;5073620;28;20059;-73
2022/08/27 04:46:12;;;;;;;14.43;3.88;;;28.60;57.90;;;;;;5055442;28;20481;-74
2022/08/27 04:48:38;;;;;;;24.98;4.50;;;28.50;57.80;;;;;;5073341;28;20036;-74
2022/08/27 04:51:05;;;;;;;24.33;4.22;;;28.50;57.70;;;;;;5073368;28;20055;-74
2022/08/27 04:53:31;;;;;;;16.77;4.30;;;28.50;57.70;;;;;;5073307;28;20657;-74
2022/08/27 04:55:57;;;;;;;19.42;4.10;;;28.40;57.80;;;;;;5073109;28;20043;-74
2022/08/27 04:58:25;;;;;;;16.10;3.75;;;28.40;57.70;;;;;;5073062;28;20070;-74
2022/08/27 05:00:53;;;;;;;7.80;4.30;;;28.40;57.60;;;;;;5073070;28;20595;-74
2022/08/27 05:03:23;;;;;;;13.05;3.95;;;28.60;57.50;;;;;;5073143;28;20392;-74
2022/08/27 05:05:50;;;;;;;10.77;4.35;;;28.60;57.50;;;;;;5072998;28;20033;-74
2022/08/27 05:08:16;;;;;;;14.57;4.55;;;28.60;57.40;;;;;;5055041;28;20146;-73
2022/08/27 05:10:48;;;;;;;14.38;3.83;;;28.70;57.30;;;;;;5072884;28;20020;-74
2022/08/27 05:13:17;;;;;;;16.27;4.97;;;28.70;57.20;;;;;;5072810;28;20032;-74
2022/08/27 05:15:44;;;;;;;9.70;3.72;;;28.70;57.00;;;;;;5036990;28;20040;-73
2022/08/27 05:18:12;;;;;;;10.77;3.70;;;28.70;56.90;;;;;;5072704;28;20029;-74
2022/08/27 05:20:44;;;;;;;8.18;3.45;;;28.80;56.80;;;;;;5072701;28;20041;-74
2022/08/27 05:23:12;;;;;;;14.52;4.22;;;28.90;56.70;;;;;;5055050;28;20036;-74
2022/08/27 05:25:40;;;;;;;13.32;3.38;;;28.70;56.70;;;;;;5072632;28;20450;-74
2022/08/27 05:28:07;;;;;;;16.42;3.45;;;28.90;56.80;;;;;;5072360;28;20077;-74
2022/08/27 05:30:38;;;;;;;11.93;3.63;;;28.90;56.70;;;;;;5072621;28;20052;-74
2022/08/27 05:33:04;;;;;;;8.65;3.30;;;28.80;56.70;;;;;;5072492;28;20028;-74
2022/08/27 05:35:31;;;;;;;8.13;4.28;;;28.80;56.70;;;;;;5072389;28;20039;-74
2022/08/27 05:37:58;;;;;;;16.88;4.65;;;28.80;56.80;;;;;;5072020;28;20051;-73
2022/08/27 05:40:25;;;;;;;15.50;4.07;;;28.70;56.80;;;;;;5072343;28;20028;-74
2022/08/27 05:42:51;;;;;;;12.38;3.83;;;28.80;56.90;;;;;;5072190;28;20035;-74
2022/08/27 05:45:18;;;;;;;11.57;4.07;;;28.70;57.10;;;;;;5072391;28;20033;-74
2022/08/27 05:47:44;;;;;;;17.42;4.22;;;28.60;57.20;;;;;;5072104;28;20036;-74
2022/08/27 05:50:11;;;;;;;9.68;3.63;;;28.60;57.20;;;;;;5072175;28;20485;-74
2022/08/27 05:52:37;;;;;;;12.80;3.97;;;28.70;57.20;;;;;;5071338;28;20043;-74
2022/08/27 05:55:03;;;;;;;12.52;4.13;;;28.70;57.20;;;;;;5071941;28;20450;-74
2022/08/27 05:57:29;;;;;;;8.05;4.07;;;28.80;57.10;;;;;;5072253;28;20040;-73
2022/08/27 06:02:41;;;;;;;15.85;4.45;;;28.80;57.20;;;;;;5072226;28;20086;-74
2022/08/27 06:05:07;;;;;;;21.40;4.60;;;28.80;57.20;;;;;;5071823;28;20492;-74
2022/08/27 06:07:33;;;;;;;16.40;3.97;;;28.80;57.20;;;;;;5049474;28;20041;-74
2022/08/27 06:10:00;;;;;;;9.77;3.40;;;28.60;57.20;;;;;;5049175;28;20068;-74
2022/08/27 06:12:26;;;;;;;15.27;4.10;;;28.80;57.10;;;;;;5049589;28;20086;-73
2022/08/27 06:14:52;;;;;;;16.42;3.92;;;28.80;57.10;;;;;;5049113;28;20116;-74
2022/08/27 06:17:18;;;;;;;6.65;2.97;;;28.80;57.00;;;;;;5049514;28;20119;-74
2022/08/27 06:19:44;;;;;;;9.25;3.85;;;28.80;57.00;;;;;;5049166;28;20036;-73
2022/08/27 06:22:10;;;;;;;10.07;3.83;;;28.70;56.90;;;;;;5049371;28;20049;-74
2022/08/27 06:24:41;;;;;;;10.02;3.28;;;28.80;56.80;;;;;;5049466;28;20029;-74
2022/08/27 06:27:13;;;;;;;14.77;4.45;;;28.70;56.90;;;;;;5048897;28;20111;-74
2022/08/27 06:29:40;;;;;;;8.57;4.00;;;28.80;57.00;;;;;;5057754;28;20063;-74
2022/08/27 06:32:08;;;;;;;15.73;4.45;;;28.80;56.90;;;;;;5069100;28;20064;-74
2022/08/27 06:34:34;;;;;;;10.25;4.20;;;28.70;57.00;;;;;;5069159;28;20040;-74
2022/08/27 06:37:00;;;;;;;13.85;4.32;;;28.70;57.00;;;;;;5069128;28;20616;-73
2022/08/27 06:39:27;;;;;;;21.80;4.63;;;28.60;57.00;;;;;;5088792;28;20119;-74
2022/08/27 06:41:53;;;;;;;11.57;4.90;;;28.70;57.00;;;;;;5091480;28;20032;-74
2022/08/27 06:44:23;;;;;;;15.65;3.80;;;28.70;57.10;;;;;;5091959;28;20043;-73
2022/08/27 06:46:50;;;;;;;9.90;4.60;;;28.70;57.20;;;;;;5091426;28;20439;-74
2022/08/27 06:49:16;;;;;;;15.18;4.40;;;28.60;57.20;;;;;;5048694;28;20049;-73
2022/08/27 06:51:45;;;;;;;12.30;4.28;;;28.70;57.10;;;;;;5049089;28;20457;-73
2022/08/27 06:54:13;;;;;;;14.35;4.35;;;28.60;57.00;;;;;;5049024;28;20417;-74
2022/08/27 06:56:41;;;;;;;9.50;3.75;;;28.70;57.10;;;;;;5048902;28;20445;-74
2022/08/27 06:59:09;;;;;;;8.10;3.30;;;28.60;57.00;;;;;;5048475;28;20037;-74
2022/08/27 07:01:38;;;;;;;11.68;4.60;;;28.80;56.90;;;;;;5048574;28;20049;-73
2022/08/27 07:04:08;;;;;;;7.78;3.05;;;28.80;56.90;;;;;;5050980;28;20695;-74
2022/08/27 07:06:35;;;;;;;8.68;3.22;;;28.80;56.80;;;;;;5052998;28;20044;-74
2022/08/27 07:09:01;;;;;;;8.13;3.15;;;28.90;56.80;;;;;;5052523;28;20497;-74
2022/08/27 07:11:30;;;;;;;13.35;3.45;;;28.80;56.80;;;;;;5052900;28;20040;-74
2022/08/27 07:13:57;;;;;;;3.13;2.70;;;28.90;56.80;;;;;;5052497;28;20126;-74
2022/08/27 07:16:25;;;;;;;12.25;2.85;;;28.80;56.80;;;;;;5052745;28;20044;-74
2022/08/27 07:18:56;;;;;;;7.35;2.72;;;28.90;56.70;;;;;;5052508;28;20040;-73
2022/08/27 07:21:22;;;;;;;5.78;3.22;;;28.90;56.70;;;;;;5041035;28;20043;-74
2022/08/27 07:23:51;;;;;;;6.65;3.33;;;28.80;56.70;;;;;;5095170;28;20449;-74
2022/08/27 07:26:18;;;;;;;7.72;3.05;;;28.90;56.70;;;;;;5095272;28;20035;-74
2022/08/27 07:28:46;;;;;;;16.25;3.67;;;28.90;56.70;;;;;;5059297;28;20028;-74
2022/08/27 07:31:19;;;;;;;6.07;2.67;;;28.90;56.70;;;;;;5074827;28;20091;-74
2022/08/27 07:33:46;;;;;;;11.43;3.03;;;29.00;57.20;;;;;;5074714;28;20067;-74
2022/08/27 07:36:12;;;;;;;7.38;3.20;;;28.80;56.70;;;;;;5074549;28;20036;-74
2022/08/27 07:38:39;;;;;;;12.82;3.80;;;29.00;57.30;;;;;;5056958;28;20071;-74
2022/08/27 07:41:06;;;;;;;16.25;4.70;;;28.80;56.70;;;;;;5074603;28;20040;-74
2022/08/27 07:46:18;;;;;;;10.93;3.25;;;28.80;56.70;;;;;;5074622;28;20056;-74
2022/08/27 07:48:44;;;;;;;13.07;3.28;;;28.80;56.70;;;;;;5040052;28;20433;-74
2022/08/27 07:51:16;;;;;;;13.85;2.80;;;28.90;56.70;;;;;;5074277;28;20028;-74
2022/08/27 07:53:43;;;;;;;6.93;3.00;;;28.80;56.70;;;;;;5056950;28;20474;-74
2022/08/27 07:56:10;;;;;;;7.45;3.10;;;28.90;56.80;;;;;;5074249;28;20469;-73
2022/08/27 07:58:37;;;;;;;9.55;3.38;;;28.70;56.80;;;;;;5074606;28;20024;-74
2022/08/27 08:01:03;;;;;;;11.70;3.10;;;28.80;56.80;;;;;;5073955;28;20040;-74
2022/08/27 08:03:30;;;;;;;6.18;3.28;;;28.90;56.80;;;;;;5074190;28;20556;-74
2022/08/27 08:06:00;;;;;;;8.82;2.65;;;28.80;56.80;;;;;;5056138;28;20035;-74
2022/08/27 08:08:27;;;;;;;10.48;3.33;;;28.80;56.90;;;;;;5074296;28;20060;-74
2022/08/27 08:10:56;;;;;;;9.18;3.75;;;28.80;56.90;;;;;;5074456;28;20032;-74
2022/08/27 08:13:23;;;;;;;6.18;2.60;;;28.90;56.80;;;;;;5074214;28;20060;-74
2022/08/27 08:15:49;;;;;;;5.75;2.70;;;28.90;56.80;;;;;;5073182;28;20469;-74
2022/08/27 08:18:15;;;;;;;6.95;3.88;;;28.80;56.90;;;;;;5073951;28;20036;-74
2022/08/27 08:20:41;;;;;;;8.68;3.25;;;28.90;56.90;;;;;;5073890;28;20477;-74
2022/08/27 08:23:08;;;;;;;10.35;3.05;;;28.90;56.90;;;;;;5074025;28;20086;-74
2022/08/27 08:25:34;;;;;;;5.65;2.78;;;28.90;56.90;;;;;;5073975;28;20062;-74
2022/08/27 08:28:00;;;;;;;9.60;3.22;;;28.90;56.80;;;;;;5073904;28;20029;-73
2022/08/27 08:30:26;;;;;;;9.23;2.88;;;28.90;56.80;;;;;;5073835;28;20097;-74
2022/08/27 08:32:53;;;;;;;4.38;3.35;;;28.90;56.80;;;;;;5038020;28;20044;-74
2022/08/27 08:35:19;;;;;;;7.20;3.15;;;28.90;56.80;;;;;;5074013;28;20041;-74
2022/08/27 08:37:46;;;;;;;13.45;3.08;;;28.80;56.80;;;;;;5073687;28;20139;-74
2022/08/27 08:40:34;;;;;;;8.73;2.90;;;29.00;57.30;;;;;;5055309;28;20063;-74
2022/08/27 08:43:02;;;;;;;5.90;2.83;;;28.80;56.80;;;;;;5073436;28;20043;-74
2022/08/27 08:45:33;;;;;;;6.03;2.67;;;28.80;56.70;;;;;;5073473;28;20456;-74
2022/08/27 08:48:06;;;;;;;7.20;2.75;;;28.80;56.50;;;;;;5073381;28;20481;-74
2022/08/27 08:50:36;;;;;;;9.43;2.85;;;28.80;56.80;;;;;;5073172;28;20036;-74
2022/08/27 08:53:18;;;;;;;6.82;2.47;;;28.90;56.80;;;;;;5021199;28;20068;-74
2022/08/27 08:55:53;;;;;;;5.35;2.92;;;28.70;56.80;;;;;;5073239;28;20114;-74
2022/08/27 08:58:51;;;;;;;5.78;2.50;;;28.90;56.80;;;;;;5073244;28;20032;-74
2022/08/27 09:01:19;;;;;;;7.75;2.80;;;28.70;56.90;;;;;;4975059;28;20046;-75
2022/08/27 09:04:02;;;;;;;8.50;3.10;;;28.80;56.90;;;;;;4991511;28;20053;-73
2022/08/27 09:06:49;;;;;;;10.20;2.55;;;28.80;56.90;;;;;;4991512;28;20137;-73
2022/08/27 09:09:30;;;;;;;5.65;2.83;;;28.80;57.00;;;;;;4991409;28;20042;-74
2022/08/27 09:12:00;;;;;;;4.55;2.45;;;28.80;56.90;;;;;;4991059;28;20050;-74
2022/08/27 09:14:50;;;;;;;8.55;2.45;;;28.90;57.00;;;;;;4991179;28;20510;-74
2022/08/27 09:17:16;;;;;;;6.03;2.67;;;28.70;57.00;;;;;;4991082;28;20049;-74
2022/08/27 09:19:42;;;;;;;7.28;3.58;;;28.90;57.00;;;;;;4991153;28;20093;-74
2022/08/27 09:22:27;;;;;;;4.50;2.45;;;28.70;57.00;;;;;;4991117;28;20046;-74
2022/08/27 09:25:10;;;;;;;3.85;2.88;;;28.80;57.00;;;;;;4991070;28;20046;-74
2022/08/27 09:27:40;;;;;;;8.93;3.50;;;28.90;57.00;;;;;;4990978;28;20403;-74
2022/08/27 09:30:10;;;;;;;8.63;3.33;;;28.80;57.00;;;;;;4990894;28;20062;-74
2022/08/27 09:32:38;;;;;;;6.22;2.20;;;28.90;57.00;;;;;;4974601;28;20480;-74
2022/08/27 09:35:10;;;;;;;4.55;2.47;;;28.80;57.00;;;;;;4990674;28;20049;-74
2022/08/27 09:37:43;;;;;;;6.25;3.10;;;28.80;56.90;;;;;;5012949;28;20050;-74
2022/08/27 09:40:26;;;;;;;5.85;2.58;;;28.80;56.60;;;;;;5072201;28;20505;-74
2022/08/27 09:42:56;;;;;;;5.95;2.25;;;28.90;56.90;;;;;;5072532;28;20086;-74
2022/08/27 09:45:25;;;;;;;8.00;2.92;;;28.90;56.60;;;;;;5072332;28;20035;-74
2022/08/27 09:48:02;;;;;;;7.00;2.55;;;28.90;56.90;;;;;;5054494;28;20074;-74
2022/08/27 09:50:37;;;;;;;15.23;3.50;;;28.90;56.90;;;;;;5071910;28;20432;-74
2022/08/27 09:53:03;;;;;;;9.93;2.83;;;28.80;56.90;;;;;;5054749;28;20037;-74
2022/08/27 09:55:38;;;;;;;5.43;2.40;;;28.90;56.90;;;;;;5072139;28;20182;-74
2022/08/27 09:58:06;;;;;;;11.90;2.90;;;28.80;56.90;;;;;;5072036;28;20032;-74
2022/08/27 10:00:38;;;;;;;6.50;2.90;;;28.90;56.90;;;;;;5053676;28;20036;-74
2022/08/27 10:03:07;;;;;;;5.43;2.70;;;28.90;56.90;;;;;;5071941;28;20063;-74
2022/08/27 10:05:42;;;;;;;8.68;3.30;;;28.70;57.00;;;;;;5071830;28;20036;-74
2022/08/27 10:08:27;;;;;;;7.90;3.15;;;28.80;56.70;;;;;;5036166;28;20044;-74
2022/08/27 10:10:59;;;;;;;8.38;2.78;;;28.80;57.10;;;;;;5072082;28;20048;-74
2022/08/27 10:13:45;;;;;;;6.35;4.35;;;28.80;57.10;;;;;;5071598;28;20032;-75
2022/08/27 10:16:29;;;;;;;11.45;3.45;;;28.70;57.10;;;;;;5071677;28;20044;-74
2022/08/27 10:19:20;;;;;;;8.02;2.63;;;28.70;57.00;;;;;;5072209;28;20123;-74
2022/08/27 10:21:50;;;;;;;7.18;2.83;;;28.70;57.10;;;;;;5071461;28;20032;-74
2022/08/27 10:24:50;;;;;;;5.95;2.60;;;28.90;57.00;;;;;;5071740;28;20037;-74
2022/08/27 10:27:37;;;;;;;5.30;2.72;;;28.80;57.10;;;;;;5071962;28;20094;-74
2022/08/27 10:30:06;;;;;;;7.80;3.05;;;28.90;57.10;;;;;;5071585;28;20141;-74
2022/08/27 10:32:58;;;;;;;6.35;3.45;;;28.90;56.90;;;;;;5071429;28;20108;-74
2022/08/27 10:35:42;;;;;;;4.10;2.70;;;28.90;57.00;;;;;;5071600;28;20121;-74
2022/08/27 10:38:17;;;;;;;4.53;2.65;;;28.80;57.10;;;;;;5071621;28;20028;-74
2022/08/27 10:40:52;;;;;;;5.35;2.35;;;28.90;57.00;;;;;;5071777;28;20497;-74
2022/08/27 10:43:24;;;;;;;10.13;2.88;;;28.80;57.00;;;;;;5071483;28;20122;-74
2022/08/27 10:46:04;;;;;;;4.40;2.30;;;29.00;57.50;;;;;;5071629;28;20308;-74
2022/08/27 10:48:37;;;;;;;5.40;2.55;;;28.80;57.00;;;;;;5071544;28;20548;-74
2022/08/27 10:51:19;;;;;;;6.43;2.88;;;28.80;57.00;;;;;;5071456;28;20033;-74
2022/08/27 10:53:54;;;;;;;4.95;2.60;;;28.80;57.00;;;;;;5071886;28;20043;-74
2022/08/27 10:56:43;;;;;;;7.28;3.13;;;28.80;57.00;;;;;;5071277;28;20056;-74
2022/08/27 10:59:43;;;;;;;5.03;2.25;;;28.90;57.00;;;;;;5071596;28;20043;-74
2022/08/27 11:02:35;;;;;;;5.90;2.58;;;28.70;57.00;;;;;;4989597;28;20050;-74
2022/08/27 11:05:29;;;;;;;10.48;2.88;;;28.80;57.00;;;;;;4989779;28;20065;-74
2022/08/27 11:08:10;;;;;;;6.30;2.58;;;28.70;57.10;;;;;;4989660;28;20464;-74
2022/08/27 11:10:44;;;;;;;7.63;1.90;;;28.80;57.00;;;;;;4989842;28;20114;-74
2022/08/27 11:13:27;;;;;;;5.97;2.38;;;28.70;57.00;;;;;;4989472;28;20400;-74
2022/08/27 11:15:57;;;;;;;6.85;2.42;;;28.70;57.10;;;;;;4989586;28;20038;-74
2022/08/27 11:18:38;;;;;;;4.50;2.20;;;28.80;57.10;;;;;;4989592;28;20499;-74
2022/08/27 11:21:17;;;;;;;6.40;2.35;;;28.70;57.20;;;;;;4989440;28;20070;-74
2022/08/27 11:23:48;;;;;;;6.88;3.03;;;28.80;57.20;;;;;;4989439;28;20372;-74
2022/08/27 11:26:14;;;;;;;5.72;2.42;;;28.70;57.20;;;;;;4989487;28;20045;-74
2022/08/27 11:28:59;;;;;;;6.05;2.47;;;28.80;57.20;;;;;;4989568;28;20439;-74
2022/08/27 11:32:22;;;;;;;7.70;2.58;;;28.80;57.20;;;;;;5008863;28;20548;-74
2022/08/27 11:34:56;;;;;;;5.47;2.53;;;28.70;57.20;;;;;;4950706;29;20353;-74
2022/08/27 11:37:37;;;;;;;12.50;2.60;;;28.90;57.20;;;;;;4950829;29;20305;-74
2022/08/27 11:40:21;;;;;;;7.20;2.40;;;28.80;57.20;;;;;;4989113;28;20045;-75
2022/08/27 11:42:53;;;;;;;9.18;2.80;;;28.90;57.10;;;;;;5008883;28;20486;-74
2022/08/27 11:45:33;;;;;;;11.98;2.40;;;28.90;57.10;;;;;;5008734;28;20580;-74
2022/08/27 11:48:13;;;;;;;11.15;2.78;;;28.80;57.10;;;;;;5009064;28;20106;-74
2022/08/27 11:50:40;;;;;;;3.58;1.75;;;28.90;57.10;;;;;;5010320;28;20540;-75
2022/08/27 11:53:07;;;;;;;3.20;2.60;;;28.90;57.10;;;;;;5012185;28;20046;-74
2022/08/27 11:55:36;;;;;;;6.07;2.20;;;28.80;57.00;;;;;;5012229;28;20374;-74
2022/08/27 11:58:22;;;;;;;7.13;1.90;;;28.90;57.00;;;;;;5012304;28;20100;-74
2022/08/27 12:00:53;;;;;;;7.35;2.60;;;28.70;57.10;;;;;;5012420;28;20084;-74
2022/08/27 12:03:19;;;;;;;7.18;2.83;;;28.80;57.10;;;;;;5011965;28;20030;-74
2022/08/27 12:05:52;;;;;;;5.13;2.60;;;28.80;57.10;;;;;;5070272;28;20047;-74
2022/08/27 12:08:21;;;;;;;6.30;2.28;;;28.90;57.00;;;;;;5094524;28;20024;-75
2022/08/27 12:11:11;;;;;;;6.25;2.60;;;28.60;57.10;;;;;;5094380;28;20032;-74
2022/08/27 12:13:56;;;;;;;7.45;2.10;;;28.80;57.10;;;;;;5094343;28;20085;-74
2022/08/27 12:16:53;;;;;;;6.28;2.28;;;28.80;57.20;;;;;;5094382;28;20036;-74
2022/08/27 12:19:45;;;;;;;7.95;2.35;;;28.80;57.20;;;;;;5076227;28;20044;-74
2022/08/27 12:22:17;;;;;;;5.47;2.33;;;28.80;57.20;;;;;;5093960;28;20024;-74
2022/08/27 12:24:56;;;;;;;6.75;2.20;;;28.70;57.20;;;;;;5076232;28;20389;-74
2022/08/27 12:27:27;;;;;;;6.53;2.72;;;28.80;57.20;;;;;;5094121;28;20052;-74
2022/08/27 12:29:59;;;;;;;10.65;2.63;;;28.80;57.20;;;;;;5083666;28;20539;-74
2022/08/27 12:32:40;;;;;;;6.18;2.65;;;28.80;57.20;;;;;;5073799;28;20090;-74
2022/08/27 12:35:19;;;;;;;3.85;2.22;;;28.80;57.20;;;;;;5073681;28;20035;-74
2022/08/27 12:37:55;;;;;;;7.68;2.40;;;28.80;57.20;;;;;;5073833;28;20116;-74
2022/08/27 12:40:28;;;;;;;9.45;2.58;;;28.70;57.20;;;;;;5073717;28;20028;-74
2022/08/27 12:43:17;;;;;;;6.43;2.55;;;28.90;57.20;;;;;;5073548;28;20461;-74
2022/08/27 12:46:07;;;;;;;9.85;2.88;;;28.90;57.20;;;;;;5073668;28;20107;-74
2022/08/27 12:48:39;;;;;;;11.82;2.88;;;28.90;57.20;;;;;;5073228;28;20052;-74
2022/08/27 12:51:07;;;;;;;;;;;28.90;57.20;;;;;;5073956;28;20117;-74
2022/08/27 12:53:44;;;;;;;5.68;2.35;;;28.90;57.20;;;;;;5073446;28;19912;-74
2022/08/27 12:56:19;;;;;;;3.38;2.60;;;28.80;57.10;;;;;;5073079;28;20044;-74
2022/08/27 12:58:56;;;;;;;5.70;2.03;;;28.90;57.10;;;;;;5073392;28;20533;-74
2022/08/27 13:01:34;;;;;;;2.72;2.10;;;28.80;57.10;;;;;;5055185;28;20040;-74
2022/08/27 13:04:01;;;;;;;5.75;2.40;;;28.90;57.10;;;;;;5073051;28;20452;-74
2022/08/27 13:06:34;;;;;;;8.80;2.53;;;28.90;57.10;;;;;;5073263;28;20016;-74
2022/08/27 13:09:07;;;;;;;3.42;1.90;;;28.90;57.10;;;;;;5073151;28;20078;-74